Flight Track Log - Related Links

Times and Time Zones

All times are in EDT time to prevent confusion due to time zone crossing. See the CPZ5714 flight status page for this flight to view local times or setup timezone preferences in your user account.

Time Position Orientation Groundspeed Altitude Reporting Facility
EDT Latitude Longitude Course Direction KTS MPH feet Rate Location/Type
Thu 08:40:40 PM 44.8667 -93.1333 70° East 185 213 2,200  Level Minneapolis TRACON
Thu 08:41:21 PM 44.8681 -93.0769 88° East 220 253 3,100 1,981 Climbing Minneapolis Center
Thu 08:42:00 PM 45.0024 -92.7525 69° East  Level FlightAware Approximate
Thu 08:42:23 PM 44.9306 -93.0178 34° Northeast 291 335 5,600  Level Minneapolis Center
Thu 08:43:00 PM 45.0463 -92.5965 68° East  Level FlightAware Approximate
Thu 08:43:26 PM 45.0128 -92.9967 10° North 302 348 7,300  Level Minneapolis Center
Thu 08:44:00 PM 45.0899 -92.4404 70° East  Level FlightAware Approximate
Thu 08:44:28 PM 45.0761 -92.9181 41° Northeast 306 352 10,100  Level Minneapolis Center
Thu 08:45:00 PM 45.1257 -92.2810 70° East  Level FlightAware Approximate
Thu 08:45:30 PM 45.1406 -92.7842 56° Northeast 362 417 11,700  Level Minneapolis Center
Thu 08:46:00 PM 45.1644 -92.1259 70° East  Level FlightAware Approximate
Thu 08:46:32 PM 45.1686 -92.6428 74° East 374 430 13,400  Level Minneapolis Center
Thu 08:47:34 PM 45.1747 -92.4917 87° East 386 444 15,600 1,935 Climbing Minneapolis Center
Thu 08:48:36 PM 45.1622 -92.3356 96° East 397 457 17,400 2,032 Climbing Minneapolis Center
Thu 08:49:38 PM 45.1625 -92.1772 90° East 404 465 19,800 2,177 Climbing Minneapolis Center
Thu 08:50:40 PM 45.1631 -92.0144 90° East 414 476 21,900 1,935 Climbing Minneapolis Center
Thu 08:51:42 PM 45.1553 -91.8194 93° East 416 479 23,800 1,597 Climbing Minneapolis Center
Thu 08:52:44 PM 45.1478 -91.6519 94° East 426 490 25,200 1,306 Climbing Minneapolis Center
Thu 08:53:46 PM 45.1375 -91.4797 95° East 436 502 26,500 968 Climbing Minneapolis Center
Thu 08:54:48 PM 45.1303 -91.3031 93° East 445 512 27,200 823 Climbing Minneapolis Center
Thu 08:55:50 PM 45.1225 -91.1122 93° East 462 532 28,200 968 Climbing Minneapolis Center
Thu 08:56:52 PM 45.1131 -90.9325 94° East 473 544 29,200 816 Climbing Minneapolis Center
Thu 08:57:55 PM 45.1017 -90.7392 95° East 478 550 29,900 960 Climbing Minneapolis Center
Thu 08:58:57 PM 45.0894 -90.5119 94° East 484 557 31,200 968 Climbing Minneapolis Center
Thu 08:59:59 PM 45.0794 -90.3236 94° East 485 558 31,900 774 Climbing Minneapolis Center
Thu 09:01:01 PM 45.0692 -90.1347 94° East 485 558 32,800 823 Climbing Minneapolis Center
Thu 09:02:03 PM 45.0581 -89.9467 95° East 484 557 33,600 919 Climbing Minneapolis Center
Thu 09:03:05 PM 45.0444 -89.7347 95° East 480 552 34,700 677 Climbing Minneapolis Center
Thu 09:04:07 PM 45.0331 -89.5506 95° East 473 544 35,000 145 Climbing Minneapolis Center
Thu 09:05:09 PM 45.0217 -89.3683 95° East 467 537 35,000  Level Minneapolis Center
Thu 09:06:11 PM 45.0094 -89.1858 95° East 466 536 35,000  Level Minneapolis Center
Thu 09:07:13 PM 44.9967 -89.0019 96° East 469 540 35,000  Level Minneapolis Center
Thu 09:08:15 PM 44.9822 -88.7892 95° East 467 537 35,000  Level Minneapolis Center
Thu 09:09:17 PM 44.9703 -88.6069 95° East 466 536 35,000  Level Minneapolis Center
Thu 09:10:19 PM 44.9575 -88.4244 96° East 465 535 35,000  Level Minneapolis Center
Thu 09:11:21 PM 44.9425 -88.2422 97° East 468 539 35,000  Level Minneapolis Center
Thu 09:12:23 PM 44.9283 -88.0567 96° East 474 545 35,000  Level Minneapolis Center
Thu 09:13:25 PM 44.9131 -87.8694 97° East 481 554 35,000  Level Minneapolis Center
Thu 09:14:27 PM 44.8975 -87.6447 96° East 481 554 35,000  Level Minneapolis Center
Thu 09:15:29 PM 44.8794 -87.4542 98° East 489 563 35,000  Level Minneapolis Center
Thu 09:16:31 PM 44.8639 -87.2656 97° East 487 560 35,000  Level Minneapolis Center
Thu 09:17:33 PM 44.8481 -87.0767 97° East 487 560 35,000  Level Minneapolis Center
Thu 09:18:35 PM 44.8319 -86.8886 97° East 486 559 35,000  Level Minneapolis Center
Thu 09:19:38 PM 44.8131 -86.6703 97° East 490 564 35,000  Level Minneapolis Center
Thu 09:20:40 PM 44.7964 -86.4783 97° East 494 568 35,000  Level Minneapolis Center
Thu 09:21:54 PM 44.7747 -86.2503 98° East 492 566 35,000  Level Minneapolis Center
Thu 09:22:56 PM 44.7572 -86.0611 97° East 489 563 35,000  Level Minneapolis Center
Thu 09:23:58 PM 44.7375 -85.8703 98° East 491 565 35,000  Level Minneapolis Center
Thu 09:25:00 PM 44.7139 -85.6525 99° East 491 565 35,000 145 Level Minneapolis Center
Thu 09:26:02 PM 44.6933 -85.4656 99° East 488 562 35,300 484 Climbing Minneapolis Center
Thu 09:27:04 PM 44.6733 -85.2808 99° East 482 555 36,000 677 Climbing Minneapolis Center
Thu 09:28:06 PM 44.6525 -85.1003 99° East 472 543 36,700 484 Climbing Minneapolis Center
Thu 09:29:08 PM 44.6278 -84.8844 99° East 469 540 37,000 145 Climbing Minneapolis Center
Thu 09:30:10 PM 44.6067 -84.7033 99° East 471 542 37,000  Level Minneapolis Center
Thu 09:31:12 PM 44.5850 -84.5228 100° East 472 543 37,000  Level Minneapolis Center
Thu 09:32:14 PM 44.5631 -84.3425 100° East 470 541 37,000  Level Minneapolis Center
Thu 09:33:16 PM 44.5406 -84.1608 100° East 473 544 37,000  Level Minneapolis Center
Thu 09:34:18 PM 44.5192 -83.9808 99° East 472 543 37,000  Level Minneapolis Center
Thu 09:35:20 PM 44.4964 -83.8014 100° East 469 540 37,000  Level Minneapolis Center
Thu 09:36:21 PM 44.4694 -83.5850 100° East 472 543 37,000  Level Minneapolis Center
Thu 09:37:23 PM 44.4458 -83.4053 100° East 471 542 37,000  Level Minneapolis Center
Thu 09:38:37 PM 44.4181 -83.1869 100° East 475 547 37,000  Level Minneapolis Center
Thu 09:39:39 PM 44.3936 -83.0053 101° East 476 548 37,000  Level Minneapolis Center
Thu 09:40:14 PM 44.3667 -82.8833 107° East 480 552 37,000  Level Toronto Center
Thu 09:41:14 PM 44.3333 -82.7167 106° East 470 541 37,000  Level Toronto Center
Thu 09:42:14 PM 44.3167 -82.5167 97° East 470 541 37,000  Level Toronto Center
Thu 09:43:14 PM 44.2833 -82.3333 104° East 480 552 37,000  Level Toronto Center
Thu 09:44:14 PM 44.2500 -82.1500 104° East 480 552 37,000  Level Toronto Center
Thu 09:45:14 PM 44.2333 -81.9667 97° East 480 552 37,000  Level Toronto Center
Thu 09:46:14 PM 44.2167 -81.8000 98° East 480 552 37,000  Level Toronto Center
Thu 09:47:14 PM 44.1833 -81.6167 104° East 480 552 37,000  Level Toronto Center
Thu 09:48:14 PM 44.1500 -81.4167 103° East 480 552 37,000  Level Toronto Center
Thu 09:49:14 PM 44.1333 -81.2333 97° East 480 552 37,000  Level Toronto Center
Thu 09:50:14 PM 44.1000 -81.0667 106° East 480 552 37,000  Level Toronto Center
Thu 09:51:14 PM 44.0667 -80.8833 104° East 470 541 37,000  Level Toronto Center
Thu 09:52:14 PM 44.0500 -80.7167 98° East 470 541 37,000  Level Toronto Center
Thu 09:53:14 PM 44.0333 -80.5167 97° East 470 541 37,000  Level Toronto Center
Thu 09:54:14 PM 44.0000 -80.3500 105° East 470 541 37,000  Level Toronto Center
Thu 09:55:14 PM 43.9667 -80.1667 104° East 470 541 37,000  Level Toronto Center
Thu 09:56:14 PM 43.9333 -80.0000 105° East 470 541 37,000  Level Toronto Center
Thu 09:57:14 PM 43.9167 -79.8167 97° East 470 541 37,000  Level Toronto Center
Thu 09:58:14 PM 43.8833 -79.6333 104° East 470 541 37,000  Level Toronto Center
Thu 09:59:14 PM 43.8500 -79.4667 105° East 480 552 37,000  Level Toronto Center
Thu 10:00:14 PM 43.8167 -79.2833 104° East 480 552 37,000  Level Toronto Center
Thu 10:01:14 PM 43.8000 -79.1167 98° East 480 552 37,000  Level Toronto Center
Thu 10:02:14 PM 43.7667 -78.9333 104° East 480 552 37,000  Level Toronto Center
Thu 10:03:14 PM 43.7333 -78.7333 103° East 480 552 37,000  Level Toronto Center
Thu 10:04:14 PM 43.7000 -78.5667 105° East 480 552 37,000  Level Toronto Center
Thu 10:05:14 PM 43.6500 -78.3833 111° Southeast 480 552 37,000  Level Toronto Center
Thu 10:06:14 PM 43.6333 -78.2000 97° East 480 552 37,000  Level Toronto Center
Thu 10:07:14 PM 43.6000 -78.0500 107° East 480 552 37,000  Level Toronto Center
Thu 10:08:14 PM 43.5667 -77.8667 104° East 480 552 37,000  Level Toronto Center
Thu 10:09:34 PM 43.5361 -77.6567 101° East 468 539 37,000 -467 Level Cleveland Center
Thu 10:11:14 PM 43.4667 -77.3167 106° East 480 552 35,600 -938 Descending Toronto Center
Thu 10:12:14 PM 43.4333 -77.1333 104° East 490 564 34,500 -1,140 Descending Toronto Center
Thu 10:12:54 PM 43.4228 -77.0433 99° East 482 555 33,700 -1,260 Descending Boston Center
Thu 10:13:54 PM 43.3881 -76.8636 105° East 482 555 32,400 -1,300 Descending Boston Center
Thu 10:14:54 PM 43.3533 -76.6811 105° East 488 562 31,100 -1,300 Descending Boston Center
Thu 10:15:54 PM 43.3181 -76.5014 105° East 488 562 29,800 -1,100 Descending Boston Center
Thu 10:16:54 PM 43.3100 -76.3156 93° East 488 562 28,900 -950 Descending Boston Center
Thu 10:17:54 PM 43.3142 -76.1300 88° East 488 562 27,900 -1,000 Descending Boston Center
Thu 10:18:54 PM 43.3156 -75.9475 89° East 483 556 26,900 -1,150 Descending Boston Center
Thu 10:19:54 PM 43.2981 -75.7697 98° East 478 550 25,600 -1,400 Descending Boston Center
Thu 10:20:54 PM 43.2506 -75.6017 111° Southeast 469 540 24,100 -1,750 Descending Boston Center
Thu 10:21:54 PM 43.2053 -75.4339 110° East 469 540 22,100 -2,000 Descending Boston Center
Thu 10:22:54 PM 43.1650 -75.2897 111° Southeast 459 528 20,100 -1,950 Descending Boston Center
Thu 10:23:54 PM 43.1231 -75.1342 110° East 446 513 18,200 -1,800 Descending Boston Center
Thu 10:24:54 PM 43.0828 -74.9844 110° East 434 499 16,500 -1,850 Descending Boston Center
Thu 10:25:54 PM 43.0442 -74.8408 110° East 420 483 14,500 -2,139 Descending Boston Center
Thu 10:26:35 PM 43.0131 -74.7317 111° Southeast 389 448 12,900 -2,059 Descending Boston Center
Thu 10:27:36 PM 42.9739 -74.5969 112° Southeast 388 447 11,000 -1,033 Descending Boston Center
Thu 10:28:37 PM 42.9386 -74.4792 112° Southeast 314 361 10,800 -942 Descending Boston Center
Thu 10:29:37 PM 42.9364 -74.3600 91° East 300 345 9,100 -1,686 Descending Boston Center
Thu 10:30:38 PM 42.9342 -74.2436 91° East 307 353 7,400 -1,736 Descending Boston Center
Thu 10:31:38 PM 42.9319 -74.1303 91° East 301 346 5,600 -1,748 Descending Boston Center
Thu 10:32:45 PM 42.9317 -74.0025 90° East 289 333 3,700 -1,406 Descending Boston Center
Thu 10:33:46 PM 42.9183 -73.9058 101° East 262 302 2,600 -595 Descending Boston Center
Thu 10:34:46 PM 42.8858 -73.8400 124° Southeast 198 228 2,500 -397 Descending Boston Center
Thu 10:35:47 PM 42.8403 -73.8106 155° Southeast 166 191 1,800 -689 Descending Boston Center

Login

Don't have an account? Register now (free) for customized features, flight alerts, and more!